Time;durP1;ratioP1;P1;durP2;ratioP2;P2;SDS_P1;SDS_P2;PMS_P1;PMS_P2;Temp;Humidity;BMP_temperature;BMP_pressure;BME280_temperature;BME280_humidity;BME280_pressure;Samples;Min_cycle;Max_cycle;Signal;HPM_P1;HPM_P2
2023/09/27 00:02:11;;;;;;;4.47;2.20;;;;;;;;;;5043723;28;20049;-70
2023/09/27 00:05:51;;;;;;;4.80;2.10;;;;;;;;;;5044281;28;20404;-70
2023/09/27 00:09:32;;;;;;;4.40;2.60;;;;;;;;;;5035747;28;20106;-71
2023/09/27 00:13:14;;;;;;;7.45;2.45;;;;;;;;;;5035637;28;20102;-71
2023/09/27 00:16:54;;;;;;;4.00;2.28;;;;;;;;;;5044898;28;20583;-71
2023/09/27 00:20:35;;;;;;;3.78;2.25;;;;;;;;;;5045085;28;20052;-71
2023/09/27 00:24:15;;;;;;;6.07;2.42;;;;;;;;;;5046743;28;20056;-69
2023/09/27 00:27:56;;;;;;;5.25;2.50;;;;;;;;;;5037367;28;20057;-70
2023/09/27 00:31:36;;;;;;;6.05;2.40;;;;;;;;;;5047410;28;20421;-70
2023/09/27 00:34:19;;;;;;;4.68;2.10;;;;;;;;;;5046685;28;20493;-71
2023/09/27 00:36:45;;;;;;;5.35;2.25;;;;;;;;;;5047197;28;20051;-72
2023/09/27 00:39:11;;;;;;;4.43;2.58;;;;;;;;;;5049637;28;20111;-71
2023/09/27 00:41:37;;;;;;;5.32;2.60;;;;;;;;;;5053329;28;20105;-70
2023/09/27 00:44:05;;;;;;;5.32;2.22;;;;;;;;;;5048910;28;20437;-71
2023/09/27 00:46:32;;;;;;;6.13;2.40;;;;;;;;;;5049886;28;20127;-71
2023/09/27 00:48:58;;;;;;;5.28;2.45;;;;;;;;;;5036869;28;20493;-72
2023/09/27 00:51:25;;;;;;;3.60;2.03;;;;;;;;;;5050750;28;20049;-72
2023/09/27 00:53:54;;;;;;;4.28;2.15;;;;;;;;;;5043650;28;20163;-70
2023/09/27 00:56:20;;;;;;;6.63;2.63;;;;;;;;;;5033355;28;20053;-71
2023/09/27 00:58:47;;;;;;;6.10;2.63;;;;;;;;;;5031053;28;20041;-69
2023/09/27 01:01:14;;;;;;;8.20;2.40;;;;;;;;;;5048332;28;20068;-72
2023/09/27 01:03:40;;;;;;;5.72;2.30;;;;;;;;;;5043193;28;20067;-70
2023/09/27 01:06:08;;;;;;;5.18;2.42;;;;;;;;;;5052501;28;20051;-71
2023/09/27 01:08:34;;;;;;;5.60;2.80;;;;;;;;;;5020436;28;20056;-71
2023/09/27 01:11:03;;;;;;;10.57;2.92;;;;;;;;;;5036890;28;20159;-70
2023/09/27 01:13:29;;;;;;;5.22;2.30;;;;;;;;;;5031828;28;20057;-70
2023/09/27 01:15:55;;;;;;;6.10;2.47;;;;;;;;;;5049279;28;20056;-71
2023/09/27 01:18:24;;;;;;;5.63;2.60;;;;;;;;;;5029270;28;20057;-70
2023/09/27 01:20:50;;;;;;;7.80;2.75;;;;;;;;;;5027973;28;20199;-69
2023/09/27 01:23:16;;;;;;;6.32;2.53;;;;;;;;;;5044522;28;20056;-70
2023/09/27 01:25:43;;;;;;;4.88;2.60;;;;;;;;;;5044213;28;20358;-71
2023/09/27 01:28:10;;;;;;;7.25;2.70;;;;;;;;;;5021585;28;20063;-70
2023/09/27 01:30:38;;;;;;;4.88;2.38;;;;;;;;;;5032207;28;20040;-71
2023/09/27 01:33:08;;;;;;;5.70;2.47;;;;;;;;;;5047135;28;20075;-71
2023/09/27 01:35:38;;;;;;;5.47;2.60;;;;;;;;;;5046198;28;20045;-71
2023/09/27 01:38:05;;;;;;;7.75;2.70;;;;;;;;;;5038316;28;20045;-72
2023/09/27 01:40:35;;;;;;;4.55;2.38;;;;;;;;;;5027741;28;20211;-70
2023/09/27 01:43:03;;;;;;;5.13;2.50;;;;;;;;;;5043181;28;20053;-71
2023/09/27 01:45:30;;;;;;;6.88;2.65;;;;;;;;;;5035591;28;20512;-71
2023/09/27 01:47:57;;;;;;;5.15;2.60;;;;;;;;;;5034129;28;20052;-70
2023/09/27 01:50:24;;;;;;;6.00;2.50;;;;;;;;;;5046982;28;20044;-70
2023/09/27 01:52:51;;;;;;;5.25;2.53;;;;;;;;;;5046435;28;20116;-70
2023/09/27 01:55:17;;;;;;;5.97;2.88;;;;;;;;;;5042259;28;20509;-70
2023/09/27 01:57:46;;;;;;;6.65;2.85;;;;;;;;;;5028311;28;20048;-71
2023/09/27 02:00:18;;;;;;;9.27;2.55;;;;;;;;;;5045936;28;20051;-70
2023/09/27 02:02:56;;;;;;;9.25;2.80;;;;;;;;;;5040139;28;20074;-70
2023/09/27 02:05:23;;;;;;;5.65;2.83;;;;;;;;;;5044310;28;20056;-71
2023/09/27 02:07:49;;;;;;;6.40;3.00;;;;;;;;;;5045195;28;20049;-70
2023/09/27 02:10:14;;;;;;;5.03;2.50;;;;;;;;;;5043256;28;20048;-70
2023/09/27 02:12:41;;;;;;;6.97;2.63;;;;;;;;;;5043929;28;20045;-71
2023/09/27 02:15:09;;;;;;;5.38;2.53;;;;;;;;;;5046015;28;20068;-70
2023/09/27 02:17:37;;;;;;;6.38;2.75;;;;;;;;;;5045708;28;20117;-70
2023/09/27 02:20:07;;;;;;;5.82;2.83;;;;;;;;;;5028394;28;20067;-71
2023/09/27 02:22:34;;;;;;;6.47;3.00;;;;;;;;;;5043073;28;20080;-70
2023/09/27 02:25:01;;;;;;;6.95;2.95;;;;;;;;;;5041005;28;20107;-69
2023/09/27 02:27:29;;;;;;;9.00;2.90;;;;;;;;;;5037502;28;20064;-70
2023/09/27 02:29:55;;;;;;;6.63;3.17;;;;;;;;;;5043334;28;20085;-69
2023/09/27 02:32:21;;;;;;;7.30;3.38;;;;;;;;;;5045692;28;20106;-69
2023/09/27 02:34:47;;;;;;;4.70;2.65;;;;;;;;;;5044629;28;20057;-71
2023/09/27 02:37:18;;;;;;;5.07;3.08;;;;;;;;;;5021674;28;20094;-71
2023/09/27 02:39:44;;;;;;;8.93;2.92;;;;;;;;;;5042696;28;20513;-69
2023/09/27 02:42:13;;;;;;;7.97;3.30;;;;;;;;;;5047065;28;20053;-70
2023/09/27 02:44:41;;;;;;;5.95;2.70;;;;;;;;;;5027971;28;20117;-70
2023/09/27 02:47:07;;;;;;;4.32;2.60;;;;;;;;;;5041942;28;20424;-70
2023/09/27 02:49:37;;;;;;;5.40;2.78;;;;;;;;;;5027848;28;20425;-71
2023/09/27 02:52:06;;;;;;;8.85;2.83;;;;;;;;;;5039933;28;20821;-73
2023/09/27 02:54:33;;;;;;;6.32;2.85;;;;;;;;;;5038854;28;20061;-70
2023/09/27 02:56:59;;;;;;;6.50;2.92;;;;;;;;;;5044069;28;20053;-71
2023/09/27 02:59:27;;;;;;;6.63;3.30;;;;;;;;;;5045488;28;20059;-71
2023/09/27 03:01:54;;;;;;;5.90;2.92;;;;;;;;;;5047148;28;20543;-71
2023/09/27 03:04:19;;;;;;;8.77;3.10;;;;;;;;;;5044739;28;20103;-69
2023/09/27 03:06:48;;;;;;;5.95;3.55;;;;;;;;;;5044213;28;20518;-71
2023/09/27 03:09:16;;;;;;;8.38;3.08;;;;;;;;;;5041134;28;20103;-71
2023/09/27 03:11:43;;;;;;;6.35;3.13;;;;;;;;;;5038947;28;20531;-70
2023/09/27 03:14:11;;;;;;;6.30;2.70;;;;;;;;;;5043757;28;20053;-73
2023/09/27 03:16:38;;;;;;;9.73;2.90;;;;;;;;;;5018809;28;20068;-70
2023/09/27 03:19:04;;;;;;;8.45;3.15;;;;;;;;;;5047586;28;20222;-70
2023/09/27 03:21:30;;;;;;;6.85;2.88;;;;;;;;;;5048734;28;20056;-70
2023/09/27 03:23:56;;;;;;;6.25;2.83;;;;;;;;;;5047442;28;20270;-70
2023/09/27 03:26:23;;;;;;;6.20;2.42;;;;;;;;;;5042425;28;20056;-70
2023/09/27 03:28:51;;;;;;;5.13;2.92;;;;;;;;;;5026258;28;20049;-70
2023/09/27 03:31:19;;;;;;;5.60;3.20;;;;;;;;;;5044408;28;20045;-70
2023/09/27 03:33:46;;;;;;;7.97;2.72;;;;;;;;;;5042102;28;20127;-69
2023/09/27 03:36:13;;;;;;;4.13;2.60;;;;;;;;;;5041517;28;20102;-71
2023/09/27 03:38:39;;;;;;;6.80;3.13;;;;;;;;;;5045234;28;20052;-70
2023/09/27 03:41:09;;;;;;;7.30;2.95;;;;;;;;;;5039280;28;20128;-69
2023/09/27 03:43:34;;;;;;;5.43;2.45;;;;;;;;;;5043362;28;20087;-70
2023/09/27 03:46:03;;;;;;;7.93;2.83;;;;;;;;;;5036715;28;20501;-69
2023/09/27 03:48:33;;;;;;;5.22;3.03;;;;;;;;;;5042837;28;20074;-70
2023/09/27 03:51:01;;;;;;;4.95;2.67;;;;;;;;;;5056083;28;20496;-70
2023/09/27 03:53:27;;;;;;;5.13;2.60;;;;;;;;;;5051870;28;20584;-70
2023/09/27 03:55:53;;;;;;;5.80;2.60;;;;;;;;;;5032150;28;20045;-70
2023/09/27 03:58:20;;;;;;;4.53;2.60;;;;;;;;;;5049903;28;20492;-70
2023/09/27 04:00:47;;;;;;;5.88;2.72;;;;;;;;;;5048152;28;20049;-70
2023/09/27 04:03:12;;;;;;;5.82;2.50;;;;;;;;;;5047885;28;20516;-70
2023/09/27 04:05:38;;;;;;;5.40;2.50;;;;;;;;;;5047357;28;20156;-70
2023/09/27 04:08:04;;;;;;;6.75;2.60;;;;;;;;;;5037968;28;20116;-71
2023/09/27 04:10:31;;;;;;;6.93;2.65;;;;;;;;;;5046821;28;20517;-71
2023/09/27 04:12:57;;;;;;;3.63;2.50;;;;;;;;;;5048876;28;20041;-71
2023/09/27 04:15:25;;;;;;;4.80;2.60;;;;;;;;;;5048537;28;20906;-70
2023/09/27 04:17:51;;;;;;;3.00;2.15;;;;;;;;;;5029672;28;20056;-70
2023/09/27 04:20:18;;;;;;;5.22;2.55;;;;;;;;;;5048741;28;20067;-71
2023/09/27 04:22:49;;;;;;;6.10;2.70;;;;;;;;;;5047055;28;20049;-71
2023/09/27 04:25:16;;;;;;;5.35;2.80;;;;;;;;;;5050116;28;20057;-71
2023/09/27 04:28:23;;;;;;;7.45;2.95;;;;;;;;;;5047400;28;20053;-71
2023/09/27 04:32:04;;;;;;;4.43;2.50;;;;;;;;;;5039111;28;20062;-70
2023/09/27 04:35:44;;;;;;;8.88;2.78;;;;;;;;;;5038485;28;20715;-70
2023/09/27 04:39:27;;;;;;;4.85;2.60;;;;;;;;;;5040948;28;20092;-70
2023/09/27 04:43:04;;;;;;;6.07;2.75;;;;;;;;;;5046774;28;20041;-72
2023/09/27 04:46:45;;;;;;;6.38;3.25;;;;;;;;;;5041209;28;20053;-71
2023/09/27 04:50:25;;;;;;;8.13;3.00;;;;;;;;;;5046519;28;20436;-71
2023/09/27 04:54:05;;;;;;;7.53;3.05;;;;;;;;;;5039138;28;20239;-71
2023/09/27 04:57:47;;;;;;;8.20;3.22;;;;;;;;;;5045344;28;20116;-70
2023/09/27 05:01:27;;;;;;;11.32;4.45;;;;;;;;;;5041683;28;20080;-71
2023/09/27 05:05:09;;;;;;;11.35;3.95;;;;;;;;;;5041516;28;20044;-74
2023/09/27 05:08:50;;;;;;;9.00;3.55;;;;;;;;;;5045456;28;20040;-71
2023/09/27 05:12:29;;;;;;;8.05;3.95;;;;;;;;;;5042248;28;20056;-70
2023/09/27 05:16:10;;;;;;;10.40;3.90;;;;;;;;;;5047777;28;20041;-73
2023/09/27 05:19:51;;;;;;;11.35;4.30;;;;;;;;;;5038553;28;20174;-71
2023/09/27 05:23:32;;;;;;;10.55;3.85;;;;;;;;;;5047044;28;20475;-73
2023/09/27 05:27:13;;;;;;;12.88;4.72;;;;;;;;;;5041004;28;20107;-71
2023/09/27 05:30:52;;;;;;;9.38;3.60;;;;;;;;;;5042347;28;20421;-74
2023/09/27 05:34:34;;;;;;;11.73;4.05;;;;;;;;;;5046248;28;20080;-71
2023/09/27 05:38:13;;;;;;;7.88;3.67;;;;;;;;;;5043028;28;20517;-72
2023/09/27 05:41:56;;;;;;;11.20;3.67;;;;;;;;;;5042478;28;20088;-70
2023/09/27 05:45:36;;;;;;;7.88;4.03;;;;;;;;;;5046200;28;20421;-76
2023/09/27 05:49:18;;;;;;;6.75;3.35;;;;;;;;;;5042714;28;20036;-71
2023/09/27 05:52:59;;;;;;;9.02;3.72;;;;;;;;;;5049668;28;20052;-73
2023/09/27 05:56:02;;;;;;;7.65;3.58;;;;;;;;;;5041077;28;20591;-73
2023/09/27 05:59:08;;;;;;;7.60;3.67;;;;;;;;;;5037275;28;20045;-73
2023/09/27 06:02:49;;;;;;;9.15;3.78;;;;;;;;;;5033501;28;20055;-70
2023/09/27 06:06:34;;;;;;;8.68;4.10;;;;;;;;;;5039215;28;20146;-69
2023/09/27 06:10:14;;;;;;;7.85;4.13;;;;;;;;;;5041070;28;20555;-76
2023/09/27 06:13:57;;;;;;;8.77;3.72;;;;;;;;;;5038315;28;20634;-71
2023/09/27 06:17:37;;;;;;;11.27;3.80;;;;;;;;;;5034461;28;20102;-70
2023/09/27 06:21:20;;;;;;;6.72;3.85;;;;;;;;;;5037561;28;20069;-71
2023/09/27 06:25:00;;;;;;;10.13;4.20;;;;;;;;;;5039342;28;20052;-71
2023/09/27 06:28:41;;;;;;;9.13;4.47;;;;;;;;;;5032323;28;20060;-71
2023/09/27 06:32:22;;;;;;;7.97;4.15;;;;;;;;;;5037795;28;20057;-75
2023/09/27 06:36:02;;;;;;;7.57;4.38;;;;;;;;;;5037603;28;20199;-70
2023/09/27 06:39:06;;;;;;;15.68;3.97;;;;;;;;;;5033672;28;20049;-71
2023/09/27 06:41:34;;;;;;;11.90;3.95;;;;;;;;;;5041007;28;20057;-74
2023/09/27 06:44:00;;;;;;;11.82;4.00;;;;;;;;;;5044085;28;20048;-64
2023/09/27 06:46:29;;;;;;;12.48;4.35;;;;;;;;;;5043704;28;20536;-66
2023/09/27 06:48:54;;;;;;;12.68;4.03;;;;;;;;;;5045250;28;20052;-66
2023/09/27 06:51:24;;;;;;;13.98;5.22;;;;;;;;;;5042082;28;20446;-65
2023/09/27 06:53:52;;;;;;;12.07;4.18;;;;;;;;;;5043761;28;20052;-66
2023/09/27 06:56:18;;;;;;;6.18;4.15;;;;;;;;;;5019423;28;20484;-66
2023/09/27 06:58:44;;;;;;;7.25;4.30;;;;;;;;;;5036911;28;20037;-66
2023/09/27 07:01:11;;;;;;;9.85;4.07;;;;;;;;;;5039811;28;20115;-64
2023/09/27 07:03:38;;;;;;;7.32;3.97;;;;;;;;;;5042224;28;20092;-66
2023/09/27 07:06:05;;;;;;;9.38;3.70;;;;;;;;;;5036665;28;20262;-64
2023/09/27 07:08:33;;;;;;;13.77;4.03;;;;;;;;;;5025210;28;20144;-65
2023/09/27 07:11:05;;;;;;;10.30;3.55;;;;;;;;;;5006823;28;20114;-64
2023/09/27 07:13:32;;;;;;;11.57;3.67;;;;;;;;;;5022212;28;20125;-68
2023/09/27 07:16:02;;;;;;;10.82;3.78;;;;;;;;;;5037544;28;20064;-66
2023/09/27 07:18:28;;;;;;;8.95;3.28;;;;;;;;;;5045303;28;20037;-66
2023/09/27 07:20:54;;;;;;;8.25;3.55;;;;;;;;;;5036029;28;20045;-68
2023/09/27 07:23:23;;;;;;;8.73;3.40;;;;;;;;;;5044366;28;20055;-67
2023/09/27 07:25:49;;;;;;;14.32;3.85;;;;;;;;;;5040948;28;20053;-68
2023/09/27 07:28:17;;;;;;;9.80;3.58;;;;;;;;;;5037118;28;20147;-67
2023/09/27 07:30:43;;;;;;;13.38;3.90;;;;;;;;;;5042277;28;20103;-69
2023/09/27 07:33:09;;;;;;;11.88;4.15;;;;;;;;;;5025919;28;20052;-67
2023/09/27 07:35:41;;;;;;;11.73;3.70;;;;;;;;;;5041539;28;20049;-67
2023/09/27 07:38:11;;;;;;;15.70;4.25;;;;;;;;;;5044992;28;20481;-66
2023/09/27 07:40:37;;;;;;;10.77;3.95;;;;;;;;;;5043580;28;20045;-68
2023/09/27 07:43:03;;;;;;;9.18;4.00;;;;;;;;;;5035619;28;20068;-67
2023/09/27 07:45:32;;;;;;;7.32;3.38;;;;;;;;;;5037205;28;20485;-68
2023/09/27 07:47:58;;;;;;;8.45;3.90;;;;;;;;;;5027322;28;20056;-66
2023/09/27 07:50:27;;;;;;;12.35;3.90;;;;;;;;;;5026646;28;20059;-66
2023/09/27 07:52:55;;;;;;;8.80;3.90;;;;;;;;;;5022594;28;20048;-66
2023/09/27 07:55:21;;;;;;;12.25;3.75;;;;;;;;;;5039689;28;20049;-69
2023/09/27 07:57:49;;;;;;;10.55;5.03;;;;;;;;;;5043858;28;20115;-69
2023/09/27 08:00:15;;;;;;;9.88;4.50;;;;;;;;;;5032903;28;20049;-67
2023/09/27 08:02:45;;;;;;;7.45;3.38;;;;;;;;;;5038129;28;20135;-69
2023/09/27 08:05:14;;;;;;;11.88;4.05;;;;;;;;;;5025668;28;20064;-67
2023/09/27 08:07:40;;;;;;;10.07;4.05;;;;;;;;;;5043561;28;20119;-67
2023/09/27 08:10:10;;;;;;;11.15;3.78;;;;;;;;;;5044167;28;20666;-67
2023/09/27 08:12:38;;;;;;;8.55;3.95;;;;;;;;;;5036274;28;20729;-69
2023/09/27 08:15:06;;;;;;;15.13;3.70;;;;;;;;;;5037593;28;20063;-66
2023/09/27 08:17:33;;;;;;;26.10;4.57;;;;;;;;;;5010957;28;20070;-66
2023/09/27 08:19:59;;;;;;;60.05;7.53;;;;;;;;;;5037608;28;20049;-66
2023/09/27 08:22:26;;;;;;;17.70;3.97;;;;;;;;;;5038886;28;20102;-67
2023/09/27 08:24:53;;;;;;;16.77;3.67;;;;;;;;;;5044014;28;20052;-66
2023/09/27 08:27:19;;;;;;;14.02;4.20;;;;;;;;;;5035639;28;20056;-66
2023/09/27 08:29:45;;;;;;;11.65;4.00;;;;;;;;;;5043159;28;20266;-66
2023/09/27 08:32:12;;;;;;;20.02;4.30;;;;;;;;;;5040390;28;20048;-67
2023/09/27 08:34:39;;;;;;;19.27;4.63;;;;;;;;;;5043114;28;20061;-68
2023/09/27 08:37:04;;;;;;;18.40;4.65;;;;;;;;;;5044893;28;20037;-67
2023/09/27 08:39:31;;;;;;;14.85;3.75;;;;;;;;;;5042839;28;20072;-68
2023/09/27 08:41:58;;;;;;;7.57;3.50;;;;;;;;;;5012048;28;20049;-66
2023/09/27 08:44:25;;;;;;;9.75;3.30;;;;;;;;;;5042592;28;20060;-67
2023/09/27 08:46:54;;;;;;;10.88;3.47;;;;;;;;;;5046389;28;20045;-67
2023/09/27 08:49:23;;;;;;;9.80;3.50;;;;;;;;;;5045284;28;20196;-67
2023/09/27 08:51:51;;;;;;;11.85;3.13;;;;;;;;;;5044007;28;20288;-68
2023/09/27 08:54:19;;;;;;;9.10;3.28;;;;;;;;;;5047392;28;20057;-67
2023/09/27 08:56:53;;;;;;;7.25;3.90;;;;;;;;;;5036537;28;20044;-68
2023/09/27 08:59:20;;;;;;;6.93;2.75;;;;;;;;;;5016953;28;20467;-67
2023/09/27 09:01:51;;;;;;;7.32;3.03;;;;;;;;;;5046729;28;20051;-69
2023/09/27 09:04:18;;;;;;;6.53;2.95;;;;;;;;;;5037189;28;20061;-69
2023/09/27 09:06:44;;;;;;;4.10;2.58;;;;;;;;;;5028158;28;20067;-71
2023/09/27 09:09:11;;;;;;;6.55;2.53;;;;;;;;;;5035217;28;20075;-70
2023/09/27 09:11:48;;;;;;;7.72;2.67;;;;;;;;;;5048801;28;20561;-70
2023/09/27 09:14:21;;;;;;;7.28;2.80;;;;;;;;;;5027339;28;20065;-68
2023/09/27 09:16:52;;;;;;;10.93;3.10;;;;;;;;;;5045875;28;20381;-70
2023/09/27 09:19:26;;;;;;;6.00;2.33;;;;;;;;;;5041028;28;20074;-69
2023/09/27 09:22:09;;;;;;;6.07;2.70;;;;;;;;;;5046228;28;20516;-67
2023/09/27 09:24:36;;;;;;;6.43;2.15;;;;;;;;;;5033254;28;20091;-66
2023/09/27 09:27:10;;;;;;;4.82;2.10;;;;;;;;;;5024456;28;20490;-68
2023/09/27 09:29:50;;;;;;;6.00;1.90;;;;;;;;;;5043523;28;20052;-67
2023/09/27 09:32:18;;;;;;;7.00;2.42;;;;;;;;;;5027098;28;20052;-67
2023/09/27 09:34:47;;;;;;;8.80;2.45;;;;;;;;;;5044910;28;20053;-67
2023/09/27 09:37:30;;;;;;;7.30;2.10;;;;;;;;;;5045619;28;20056;-67
2023/09/27 09:40:14;;;;;;;13.20;2.33;;;;;;;;;;5032929;28;20053;-66
2023/09/27 09:42:42;;;;;;;4.80;2.10;;;;;;;;;;5047415;28;20247;-67
2023/09/27 09:45:12;;;;;;;6.65;2.40;;;;;;;;;;5035569;28;20332;-66
2023/09/27 09:47:41;;;;;;;3.72;2.00;;;;;;;;;;5046427;28;20103;-68
2023/09/27 09:50:16;;;;;;;4.47;1.98;;;;;;;;;;5045118;28;20076;-66
2023/09/27 09:52:58;;;;;;;4.63;2.00;;;;;;;;;;5045082;28;20041;-68
2023/09/27 09:55:31;;;;;;;4.22;2.00;;;;;;;;;;5036109;28;20109;-69
2023/09/27 09:58:15;;;;;;;9.85;2.10;;;;;;;;;;5045028;28;20123;-67
2023/09/27 10:00:48;;;;;;;5.93;2.30;;;;;;;;;;5039195;28;20212;-67
2023/09/27 10:03:20;;;;;;;7.95;2.30;;;;;;;;;;5030781;28;20045;-67
2023/09/27 10:05:50;;;;;;;5.32;2.70;;;;;;;;;;5034794;28;20046;-67
2023/09/27 10:08:19;;;;;;;5.60;2.00;;;;;;;;;;5056804;28;20095;-69
2023/09/27 10:10:47;;;;;;;22.42;3.38;;;;;;;;;;5046765;28;20049;-66
2023/09/27 10:13:14;;;;;;;25.77;4.13;;;;;;;;;;5045208;28;20144;-67
2023/09/27 10:15:42;;;;;;;7.80;3.13;;;;;;;;;;5032227;28;20041;-68
2023/09/27 10:18:24;;;;;;;6.22;2.30;;;;;;;;;;5027875;28;20048;-67
2023/09/27 10:21:05;;;;;;;7.65;2.30;;;;;;;;;;5043922;28;20052;-66
2023/09/27 10:23:58;;;;;;;10.02;2.63;;;;;;;;;;5045646;28;20155;-66
2023/09/27 10:26:32;;;;;;;9.40;2.85;;;;;;;;;;5042383;28;20502;-71
2023/09/27 10:29:04;;;;;;;5.82;2.30;;;;;;;;;;5034542;28;20184;-70
2023/09/27 10:31:31;;;;;;;12.80;2.85;;;;;;;;;;5022075;28;20136;-71
2023/09/27 10:33:58;;;;;;;7.80;3.30;;;;;;;;;;5024347;28;20611;-70
2023/09/27 10:36:24;;;;;;;7.20;3.28;;;;;;;;;;5031503;28;20196;-69
2023/09/27 10:38:53;;;;;;;7.25;2.95;;;;;;;;;;5036910;28;20063;-70
2023/09/27 10:41:38;;;;;;;5.53;2.75;;;;;;;;;;5041909;28;20106;-68
2023/09/27 10:44:04;;;;;;;;;;;;;;;;;;5027822;28;20229;-68
2023/09/27 10:47:03;;;;;;;6.97;2.72;;;;;;;;;;5032537;28;20385;-69
2023/09/27 10:49:38;;;;;;;6.38;2.80;;;;;;;;;;5003579;28;20123;-70
2023/09/27 10:52:21;;;;;;;5.30;2.90;;;;;;;;;;5036443;28;20040;-67
2023/09/27 10:54:47;;;;;;;6.65;2.53;;;;;;;;;;5026736;28;20126;-68
2023/09/27 10:57:14;;;;;;;6.68;2.60;;;;;;;;;;5034425;28;20053;-67
2023/09/27 10:59:41;;;;;;;8.52;2.95;;;;;;;;;;5009228;28;20525;-67
2023/09/27 11:02:11;;;;;;;9.13;2.50;;;;;;;;;;5032928;28;20053;-68
2023/09/27 11:04:46;;;;;;;8.00;2.65;;;;;;;;;;5005506;28;20049;-66
2023/09/27 11:07:13;;;;;;;5.93;2.47;;;;;;;;;;5028168;28;20381;-66
2023/09/27 11:09:45;;;;;;;5.70;2.63;;;;;;;;;;5012519;28;20128;-67
2023/09/27 11:12:11;;;;;;;5.13;2.45;;;;;;;;;;5011472;28;20175;-68
2023/09/27 11:14:44;;;;;;;7.13;2.30;;;;;;;;;;5022885;28;20365;-68
2023/09/27 11:17:25;;;;;;;6.78;2.58;;;;;;;;;;5028340;28;20212;-72
2023/09/27 11:19:52;;;;;;;10.20;2.55;;;;;;;;;;5019348;28;20106;-67
2023/09/27 11:22:25;;;;;;;6.32;2.67;;;;;;;;;;5010181;28;20057;-69
2023/09/27 11:24:51;;;;;;;4.13;2.42;;;;;;;;;;5022315;28;20087;-69
2023/09/27 11:27:21;;;;;;;7.10;2.15;;;;;;;;;;5023931;28;20057;-70
2023/09/27 11:29:52;;;;;;;8.05;2.70;;;;;;;;;;5022695;28;20057;-67
2023/09/27 11:32:19;;;;;;;6.85;2.25;;;;;;;;;;5005554;28;20145;-67
2023/09/27 11:34:56;;;;;;;7.35;2.40;;;;;;;;;;5006534;28;20046;-67
2023/09/27 11:37:24;;;;;;;6.30;2.63;;;;;;;;;;5013245;28;20053;-67
2023/09/27 11:39:52;;;;;;;6.38;3.08;;;;;;;;;;5023707;28;20073;-67
2023/09/27 11:42:25;;;;;;;4.82;2.35;;;;;;;;;;5023172;28;20076;-67
2023/09/27 11:45:05;;;;;;;6.53;3.30;;;;;;;;;;5019243;28;20145;-69
2023/09/27 11:47:32;;;;;;;6.05;3.17;;;;;;;;;;5023530;28;20049;-65
2023/09/27 11:49:59;;;;;;;6.47;2.47;;;;;;;;;;5019839;28;20057;-69
2023/09/27 11:52:25;;;;;;;10.35;2.60;;;;;;;;;;5010503;28;20053;-68
2023/09/27 11:54:53;;;;;;;6.25;2.60;;;;;;;;;;5023726;28;20313;-67
2023/09/27 11:57:19;;;;;;;7.32;2.70;;;;;;;;;;5024737;28;20128;-70
2023/09/27 11:59:45;;;;;;;4.90;2.58;;;;;;;;;;5023144;28;20049;-66
2023/09/27 12:02:18;;;;;;;7.80;2.55;;;;;;;;;;5017619;28;20046;-68
2023/09/27 12:04:45;;;;;;;9.45;2.70;;;;;;;;;;5015116;28;20049;-67
2023/09/27 12:07:14;;;;;;;7.03;2.17;;;;;;;;;;5020814;28;20080;-67
2023/09/27 12:09:40;;;;;;;5.10;2.28;;;;;;;;;;5032801;28;20041;-67
2023/09/27 12:12:06;;;;;;;7.70;2.50;;;;;;;;;;5032107;28;20057;-68
2023/09/27 12:14:32;;;;;;;4.20;2.30;;;;;;;;;;5026464;28;20056;-68
2023/09/27 12:16:58;;;;;;;5.82;2.40;;;;;;;;;;5004379;28;20048;-70
2023/09/27 12:20:06;;;;;;;8.60;2.60;;;;;;;;;;5030696;28;20045;-68
2023/09/27 12:23:47;;;;;;;8.32;2.97;;;;;;;;;;5016897;28;20061;-69
2023/09/27 12:27:27;;;;;;;9.25;2.65;;;;;;;;;;5024885;28;20067;-67
2023/09/27 12:31:08;;;;;;;5.30;2.38;;;;;;;;;;5039104;28;20041;-68
2023/09/27 12:34:49;;;;;;;7.80;2.90;;;;;;;;;;5037893;28;20095;-68
2023/09/27 12:38:28;;;;;;;5.57;2.50;;;;;;;;;;5036850;28;20145;-67
2023/09/27 12:42:09;;;;;;;6.13;2.80;;;;;;;;;;5039976;28;20287;-67
2023/09/27 12:45:49;;;;;;;7.22;4.05;;;;;;;;;;5034549;28;20255;-69
2023/09/27 12:49:29;;;;;;;8.65;4.07;;;;;;;;;;5042273;28;20432;-70
2023/09/27 12:53:10;;;;;;;11.43;3.13;;;;;;;;;;5036974;28;20048;-67
2023/09/27 12:56:50;;;;;;;8.50;3.45;;;;;;;;;;5039846;28;20048;-69
2023/09/27 13:00:32;;;;;;;10.40;4.07;;;;;;;;;;5038199;28;20118;-66
2023/09/27 13:04:13;;;;;;;8.93;4.68;;;;;;;;;;5040991;28;20052;-67
2023/09/27 13:07:54;;;;;;;7.32;3.90;;;;;;;;;;5039915;28;20462;-69
2023/09/27 13:11:34;;;;;;;7.07;2.60;;;;;;;;;;5046530;28;20044;-67
2023/09/27 13:15:14;;;;;;;4.82;2.50;;;;;;;;;;5043874;28;20182;-67
2023/09/27 13:18:55;;;;;;;5.90;2.50;;;;;;;;;;5035832;28;20424;-69
2023/09/27 13:22:35;;;;;;;6.97;2.90;;;;;;;;;;5038256;28;20049;-68
2023/09/27 13:26:15;;;;;;;4.95;2.30;;;;;;;;;;5041005;28;20409;-69
2023/09/27 13:29:56;;;;;;;6.15;2.15;;;;;;;;;;5045058;28;20115;-67
2023/09/27 13:33:36;;;;;;;6.55;2.40;;;;;;;;;;5040884;28;20053;-68
2023/09/27 13:37:19;;;;;;;4.28;2.30;;;;;;;;;;5039165;28;20053;-66
2023/09/27 13:40:57;;;;;;;7.03;2.63;;;;;;;;;;5041003;28;20045;-68
2023/09/27 13:43:57;;;;;;;7.20;2.40;;;;;;;;;;5028969;28;20047;-68
2023/09/27 13:46:26;;;;;;;7.30;3.20;;;;;;;;;;5041765;28;20053;-66
2023/09/27 13:48:52;;;;;;;8.73;2.95;;;;;;;;;;5039033;28;20405;-67
2023/09/27 13:51:21;;;;;;;7.28;2.60;;;;;;;;;;5044482;28;20505;-67
2023/09/27 13:53:47;;;;;;;5.43;2.60;;;;;;;;;;5032758;28;20099;-68
2023/09/27 13:56:13;;;;;;;5.68;3.28;;;;;;;;;;5043161;28;20154;-66
2023/09/27 13:58:39;;;;;;;5.00;2.78;;;;;;;;;;5038667;28;20402;-68
2023/09/27 14:01:05;;;;;;;4.80;2.53;;;;;;;;;;5037924;28;20119;-67
2023/09/27 14:03:31;;;;;;;6.57;2.90;;;;;;;;;;5046327;28;20501;-68
2023/09/27 14:05:57;;;;;;;3.88;2.17;;;;;;;;;;5044754;28;20053;-68
2023/09/27 14:08:23;;;;;;;6.32;2.30;;;;;;;;;;5044895;28;20140;-70
2023/09/27 14:10:50;;;;;;;5.72;2.00;;;;;;;;;;5045605;28;20399;-68
2023/09/27 14:13:16;;;;;;;3.90;2.00;;;;;;;;;;5042607;28;20052;-69
2023/09/27 14:15:43;;;;;;;4.88;2.05;;;;;;;;;;5046092;28;20060;-68
2023/09/27 14:18:12;;;;;;;3.63;1.92;;;;;;;;;;5047943;28;20041;-70
2023/09/27 14:20:39;;;;;;;6.60;1.83;;;;;;;;;;5048400;28;20068;-68
2023/09/27 14:23:05;;;;;;;5.30;2.00;;;;;;;;;;5044605;28;20056;-67
2023/09/27 14:25:33;;;;;;;2.83;1.52;;;;;;;;;;5044110;28;20105;-68
2023/09/27 14:27:58;;;;;;;8.13;2.20;;;;;;;;;;5018922;28;20056;-68
2023/09/27 14:30:24;;;;;;;5.43;1.90;;;;;;;;;;5040855;28;20057;-68
2023/09/27 14:32:52;;;;;;;5.93;2.00;;;;;;;;;;5052633;28;20052;-67
2023/09/27 14:35:19;;;;;;;3.25;1.90;;;;;;;;;;5043256;28;20464;-68
2023/09/27 14:37:45;;;;;;;6.22;2.00;;;;;;;;;;5045518;28;20405;-69
2023/09/27 14:40:12;;;;;;;3.17;1.88;;;;;;;;;;5044092;28;20114;-69
2023/09/27 14:42:41;;;;;;;3.08;2.03;;;;;;;;;;5043965;28;20656;-68
2023/09/27 14:45:08;;;;;;;5.18;1.50;;;;;;;;;;5044054;28;20482;-68
2023/09/27 14:47:35;;;;;;;4.90;1.60;;;;;;;;;;5036619;28;20059;-68
2023/09/27 14:50:06;;;;;;;3.80;1.42;;;;;;;;;;5041178;28;20080;-68
2023/09/27 14:52:32;;;;;;;3.85;1.23;;;;;;;;;;5038350;28;20055;-72
2023/09/27 14:54:58;;;;;;;3.88;1.30;;;;;;;;;;5044862;28;20044;-74
2023/09/27 14:57:24;;;;;;;5.20;1.58;;;;;;;;;;5027284;28;20190;-73
2023/09/27 14:59:52;;;;;;;3.47;1.60;;;;;;;;;;5038487;28;20060;-73
2023/09/27 15:02:18;;;;;;;7.40;1.73;;;;;;;;;;5037606;28;20448;-72
2023/09/27 15:04:45;;;;;;;4.95;1.75;;;;;;;;;;5039055;28;21040;-72
2023/09/27 15:07:11;;;;;;;4.03;1.60;;;;;;;;;;5035313;28;20112;-72
2023/09/27 15:09:37;;;;;;;4.63;1.80;;;;;;;;;;5035416;28;20064;-73
2023/09/27 15:12:03;;;;;;;6.47;1.92;;;;;;;;;;5025538;28;20401;-73
2023/09/27 15:14:29;;;;;;;4.47;2.00;;;;;;;;;;5046555;28;20103;-72
2023/09/27 15:16:56;;;;;;;4.32;1.50;;;;;;;;;;5041169;28;20040;-73
2023/09/27 15:19:23;;;;;;;5.78;1.90;;;;;;;;;;5044500;28;20048;-73
2023/09/27 15:21:49;;;;;;;7.97;2.58;;;;;;;;;;5043382;28;20501;-72
2023/09/27 15:24:16;;;;;;;7.25;2.45;;;;;;;;;;5046306;28;20080;-72
2023/09/27 15:26:42;;;;;;;6.50;1.80;;;;;;;;;;5037239;28;20116;-73
2023/09/27 15:29:10;;;;;;;3.97;1.60;;;;;;;;;;5013739;28;20050;-72
2023/09/27 15:31:36;;;;;;;4.53;1.50;;;;;;;;;;5010426;28;20178;-76
2023/09/27 15:34:02;;;;;;;6.20;1.40;;;;;;;;;;5020968;28;20485;-77
2023/09/27 15:36:30;;;;;;;2.10;1.10;;;;;;;;;;5023635;28;20194;-74
2023/09/27 15:38:56;;;;;;;4.03;1.65;;;;;;;;;;5017431;28;20433;-77
2023/09/27 15:41:22;;;;;;;3.53;1.50;;;;;;;;;;5017429;28;20524;-75
2023/09/27 15:43:49;;;;;;;3.70;1.50;;;;;;;;;;5032965;28;20064;-75
2023/09/27 15:46:16;;;;;;;5.72;1.70;;;;;;;;;;5005970;28;20125;-81
2023/09/27 15:48:44;;;;;;;5.00;1.50;;;;;;;;;;5043127;28;20041;-82
2023/09/27 15:51:12;;;;;;;3.08;1.42;;;;;;;;;;5038318;28;20042;-74
2023/09/27 15:53:39;;;;;;;4.65;1.80;;;;;;;;;;5029152;28;20632;-75
2023/09/27 15:56:07;;;;;;;5.10;1.77;;;;;;;;;;5026077;28;20053;-80
2023/09/27 15:58:33;;;;;;;5.00;1.40;;;;;;;;;;5035768;28;20075;-80
2023/09/27 16:01:01;;;;;;;5.53;1.73;;;;;;;;;;5040012;28;20108;-82
2023/09/27 16:03:27;;;;;;;3.03;1.60;;;;;;;;;;5031271;28;20103;-81
2023/09/27 16:05:53;;;;;;;3.42;1.85;;;;;;;;;;5044381;28;20045;-81
2023/09/27 16:08:23;;;;;;;6.38;1.75;;;;;;;;;;5037417;28;20033;-82